.
WxDataArchive / Data Records for 2008-07-01
2008-06-30 July 2008 2008-07-02

Data Records for Tuesday, 01 July 2008

Time	Temp	Chill	HIndex	Humid	Dewpt	 Wind 	HiWind	WindDir	Rain 	Barom 
-----	----	-----	------	-----	-----	------	------	-------	-----	----- 
00:00	60.5	60.5	60.5	61	47.0	0	1	315	0.00	29.948 
00:05	60.4	60.4	60.4	62	47.3	0	0	---	0.00	29.948 
00:10	60.1	60.1	60.1	62	47.0	0	0	---	0.00	29.948 
00:15	59.9	59.9	59.9	62	46.8	0	0	---	0.00	29.948 
00:20	59.8	59.8	59.8	63	47.2	0	0	---	0.00	29.949 
00:25	59.5	59.5	59.5	63	46.9	0	0	---	0.00	29.949 
00:30	59.3	59.3	59.3	64	47.1	0	0	---	0.00	29.950 
00:35	59.0	59.0	59.0	64	46.8	0	0	---	0.00	29.950 
00:40	58.9	58.9	58.9	64	46.7	0	0	---	0.00	29.953 
00:45	58.9	58.9	58.9	64	46.7	0	0	---	0.00	29.953 
00:50	58.7	58.7	58.7	65	47.0	0	0	---	0.00	29.954 
00:55	58.7	58.7	58.7	65	47.0	0	1	315	0.00	29.953 
01:00	58.7	58.7	58.7	65	47.0	0	0	---	0.00	29.953 
01:05	58.6	58.6	58.6	65	46.9	0	0	---	0.00	29.950 
01:10	58.4	58.4	58.4	65	46.7	0	0	---	0.00	29.950 
01:15	58.3	58.3	58.3	66	47.0	0	0	---	0.00	29.950 
01:20	58.1	58.1	58.1	66	46.8	0	0	---	0.00	29.950 
01:25	58.1	58.1	58.1	66	46.8	0	1	315	0.00	29.949 
01:30	58.0	58.0	58.0	66	46.7	0	0	---	0.00	29.949 
01:35	58.0	58.0	58.0	66	46.7	0	0	---	0.00	29.949 
01:40	58.0	58.0	58.0	66	46.7	0	0	---	0.00	29.949 
01:45	58.0	58.0	58.0	66	46.7	0	0	---	0.00	29.949 
01:50	57.6	57.6	57.6	67	46.7	0	0	---	0.00	29.949 
01:55	57.5	57.5	57.5	67	46.6	0	0	---	0.00	29.949 
02:00	57.5	57.5	57.5	67	46.6	0	0	---	0.00	29.948 
02:05	57.3	57.3	57.3	68	46.8	0	0	---	0.00	29.948 
02:10	57.2	57.2	57.2	68	46.7	0	0	---	0.00	29.948 
02:15	57.0	57.0	57.0	68	46.5	0	0	---	0.00	29.948 
02:20	57.0	57.0	57.0	68	46.5	0	0	---	0.00	29.948 
02:25	56.9	56.9	56.9	69	46.8	0	0	---	0.00	29.948 
02:30	56.7	56.7	56.7	70	47.0	0	0	---	0.00	29.947 
02:35	56.5	56.5	56.5	71	47.2	0	0	---	0.00	29.947 
02:40	56.0	56.0	56.0	71	46.7	0	0	---	0.00	29.948 
02:45	55.7	55.7	55.7	72	46.8	0	0	---	0.00	29.946 
02:50	55.3	55.3	55.3	73	46.8	0	0	---	0.00	29.948 
02:55	55.0	55.0	55.0	75	47.2	0	0	---	0.00	29.948 
03:00	54.5	54.5	54.5	75	46.7	0	0	---	0.00	29.948 
03:05	54.2	54.2	54.2	76	46.8	0	0	---	0.00	29.948 
03:10	53.9	53.9	53.9	76	46.5	0	0	---	0.00	29.946 
03:15	53.6	53.6	53.6	78	46.9	0	0	---	0.00	29.945 
03:20	53.5	53.5	53.5	78	46.8	0	0	---	0.00	29.945 
03:25	53.3	53.3	53.3	79	47.0	0	0	---	0.00	29.947 
03:30	53.1	53.1	53.1	79	46.8	0	0	---	0.00	29.949 
03:35	52.9	52.9	52.9	80	46.9	0	0	---	0.00	29.949 
03:40	52.8	52.8	52.8	80	46.8	0	0	---	0.00	29.949 
03:45	52.8	52.8	52.8	81	47.1	0	0	---	0.00	29.950 
03:50	52.6	52.6	52.6	81	46.9	0	0	---	0.00	29.950 
03:55	52.5	52.5	52.5	81	46.8	0	0	---	0.00	29.951 
04:00	52.3	52.3	52.3	82	47.0	0	0	---	0.00	29.951 
04:05	52.2	52.2	52.2	82	46.9	0	0	---	0.00	29.951 
04:10	51.9	51.9	51.9	83	46.9	0	0	---	0.00	29.951 
04:15	51.7	51.7	51.7	84	47.0	0	0	---	0.00	29.951 
04:20	51.6	51.6	51.6	84	46.9	0	0	---	0.00	29.951 
04:25	51.3	51.3	51.3	85	46.9	0	0	---	0.00	29.952 
04:30	51.1	51.1	51.1	85	46.7	0	0	---	0.00	29.954 
04:35	51.0	51.0	51.0	86	47.0	0	0	---	0.00	29.953 
04:40	51.0	51.0	51.0	86	47.0	0	0	---	0.00	29.952 
04:45	50.8	50.8	50.8	86	46.8	0	0	---	0.00	29.952 
04:50	50.7	50.7	50.7	86	46.7	0	0	---	0.00	29.951 
04:55	50.5	50.5	50.5	86	46.5	0	0	---	0.00	29.952 
05:00	50.4	50.4	50.4	86	46.4	0	0	---	0.00	29.954 
05:05	50.4	50.4	50.4	87	46.7	0	0	---	0.00	29.955 
05:10	50.2	50.2	50.2	87	46.5	0	0	---	0.00	29.957 
05:15	50.1	50.1	50.1	87	46.4	0	0	---	0.00	29.956 
05:20	49.9	49.9	49.9	88	46.5	0	0	---	0.00	29.958 
05:25	49.9	49.9	49.9	88	46.5	0	0	---	0.00	29.958 
05:30	49.9	49.9	49.9	88	46.5	0	0	---	0.00	29.962 
05:35	49.9	49.9	49.9	88	46.5	0	0	---	0.00	29.963 
05:40	50.2	50.2	50.2	88	46.8	0	1	315	0.00	29.966 
05:45	50.7	50.7	50.7	88	47.3	0	1	315	0.00	29.968 
05:50	51.1	51.1	51.1	86	47.1	0	0	---	0.00	29.970 
05:55	51.7	51.7	51.7	84	47.0	0	0	---	0.00	29.970 
06:00	52.2	52.2	52.2	83	47.2	0	0	---	0.00	29.968 
06:05	52.5	52.5	52.5	82	47.2	0	0	---	0.00	29.971 
06:10	52.8	52.8	52.8	81	47.1	0	1	315	0.00	29.974 
06:15	53.2	53.2	53.2	80	47.2	0	1	315	0.00	29.976 
06:20	53.5	53.5	53.5	80	47.5	0	1	315	0.00	29.977 
06:25	53.9	53.9	53.9	79	47.5	0	1	315	0.00	29.982 
06:30	54.5	54.5	54.5	77	47.4	0	1	315	0.00	29.982 
06:35	55.0	55.0	55.0	76	47.6	0	0	---	0.00	29.982 
06:40	55.4	55.4	55.4	75	47.6	0	0	---	0.00	29.983 
06:45	56.0	56.0	56.0	75	48.2	0	1	315	0.00	29.981 
06:50	56.5	56.5	56.5	72	47.6	0	1	315	0.00	29.983 
06:55	57.0	57.0	57.0	71	47.7	0	1	315	0.00	29.986 
07:00	57.5	57.5	57.5	69	47.4	0	1	315	0.00	29.987 
07:05	58.1	58.1	58.1	68	47.6	0	1	315	0.00	29.993 
07:10	58.6	58.6	58.6	68	48.1	0	1	315	0.00	29.996 
07:15	59.2	59.2	59.2	65	47.4	0	1	315	0.00	29.995 
07:20	59.8	59.8	59.8	64	47.6	0	1	315	0.00	29.997 
07:25	60.2	60.2	60.2	63	47.6	0	1	315	0.00	29.997 
07:30	60.9	60.9	60.9	62	47.8	0	1	315	0.00	29.996 
07:35	61.5	61.5	61.5	61	47.9	0	1	315	0.00	29.996 
07:40	62.1	62.1	62.1	59	47.6	0	1	315	0.00	29.996 
07:45	62.7	62.7	62.7	58	47.7	0	1	315	0.00	29.997 
07:50	63.4	63.4	63.4	58	48.4	0	1	315	0.00	29.998 
07:55	63.9	63.9	63.9	55	47.4	0	2	315	0.00	30.001 
08:00	64.5	64.5	64.5	56	48.4	0	1	315	0.00	30.002 
08:05	65.2	65.2	65.2	55	48.6	1	2	315	0.00	30.005 
08:10	65.6	65.6	65.6	53	48.0	0	1	315	0.00	30.002 
08:15	66.1	66.1	66.1	54	49.0	0	1	315	0.00	30.001 
08:20	66.9	66.9	66.9	53	49.2	0	1	315	0.00	30.001 
08:25	67.4	67.4	67.4	52	49.2	0	1	315	0.00	30.000 
08:30	67.9	67.9	67.9	52	49.6	0	1	315	0.00	30.000 
08:35	68.4	68.4	68.4	49	48.5	0	1	315	0.00	30.001 
08:40	68.9	68.9	68.9	49	48.9	0	1	315	0.00	30.001 
08:45	69.4	69.4	69.4	48	48.8	0	2	315	0.00	30.001 
08:50	69.8	69.8	69.8	48	49.2	1	2	315	0.00	29.999 
08:55	70.3	70.3	70.3	48	49.7	0	2	315	0.00	30.000 
09:00	70.4	70.4	70.4	45	48.0	1	2	292	0.00	30.000 
09:05	70.6	70.6	70.6	42	46.4	0	2	292	0.00	30.000 
09:10	70.9	70.9	70.9	44	47.9	0	2	292	0.00	30.003 
09:15	71.3	71.3	71.3	46	49.4	0	2	292	0.00	29.999 
09:20	72.0	72.0	72.0	43	48.3	1	3	225	0.00	29.998 
09:25	72.3	72.3	72.3	42	47.9	0	2	225	0.00	29.998 
09:30	72.7	72.7	72.7	42	48.3	1	3	225	0.00	29.998 
09:35	72.7	72.7	72.7	43	48.9	1	2	225	0.00	29.998 
09:40	72.8	72.8	72.8	43	49.0	1	5	225	0.00	30.001 
09:45	73.2	73.2	73.2	46	51.2	1	5	248	0.00	30.001 
09:50	73.5	73.5	73.5	38	46.3	1	3	248	0.00	30.000 
09:55	73.7	73.7	73.7	37	45.8	1	3	248	0.00	30.000 
10:00	73.7	73.7	73.7	40	47.9	1	4	270	0.00	30.000 
10:05	73.7	73.7	73.7	42	49.2	1	3	292	0.00	30.003 
10:10	74.0	74.0	74.0	34	43.8	1	3	248	0.00	30.004 
10:15	74.0	74.0	74.0	37	46.1	1	3	292	0.00	30.005 
10:20	74.0	74.0	74.0	36	45.3	2	4	292	0.00	30.006 
10:25	74.2	74.2	74.2	37	46.2	1	3	292	0.00	30.006 
10:30	74.7	74.7	74.7	35	45.2	1	3	292	0.00	30.006 
10:35	74.9	74.9	74.9	35	45.4	1	2	292	0.00	30.005 
10:40	75.1	75.1	77.1	32	43.2	1	3	248	0.00	30.006 
10:45	75.3	75.3	77.2	33	44.2	1	3	292	0.00	30.005 
10:50	75.4	75.4	77.1	30	41.8	1	3	270	0.00	30.006 
10:55	75.4	75.4	76.9	28	40.0	1	3	248	0.00	30.003 
11:00	75.8	75.8	77.1	28	40.4	1	4	315	0.00	30.003 
11:05	76.1	76.1	77.2	29	41.5	1	3	248	0.00	30.001 
11:10	76.3	76.3	77.6	33	45.1	1	3	225	0.00	30.001 
11:15	76.3	76.3	77.2	28	40.8	2	3	270	0.00	30.000 
11:20	76.3	76.3	77.2	27	39.8	1	2	292	0.00	29.999 
11:25	76.7	76.7	77.5	29	42.0	2	3	292	0.00	29.997 
11:30	76.8	76.8	77.7	31	43.9	1	3	270	0.00	29.994 
11:35	77.4	77.4	78.0	32	45.2	1	2	270	0.00	29.994 
11:40	77.6	77.6	78.0	31	44.5	1	4	248	0.00	29.992 
11:45	77.7	77.7	78.0	30	43.8	1	2	248	0.00	29.992 
11:50	77.6	77.6	78.1	33	46.2	1	4	270	0.00	29.993 
11:55	77.6	77.6	78.1	33	46.2	0	2	270	0.00	29.993 
12:00	77.7	77.7	78.0	31	44.6	1	3	270	0.00	29.994 
12:05	77.6	77.6	77.9	30	43.7	1	3	315	0.00	29.994 
12:10	77.7	77.7	78.2	34	47.1	0	2	315	0.00	29.992 
12:15	77.9	77.9	78.2	32	45.6	2	4	270	0.00	29.991 
12:20	78.3	78.3	78.2	29	43.4	1	4	270	0.00	29.992 
12:25	78.5	78.5	78.4	31	45.3	0	2	270	0.00	29.992 
12:30	78.8	78.8	78.8	35	48.8	1	3	270	0.00	29.991 
12:35	78.8	78.8	78.5	29	43.8	1	3	270	0.00	29.990 
12:40	78.8	78.8	78.7	33	47.2	1	3	270	0.00	29.988 
12:45	78.5	78.5	78.4	30	44.5	1	3	338	0.00	29.987 
12:50	78.6	78.6	78.5	31	45.4	1	5	292	0.00	29.983 
12:55	79.0	79.0	78.6	30	44.9	1	3	248	0.00	29.981 
13:00	79.0	79.0	78.6	29	44.0	1	3	292	0.00	29.983 
13:05	79.0	79.0	78.5	28	43.1	0	2	292	0.00	29.983 
13:10	79.2	79.2	78.6	28	43.3	1	3	292	0.00	29.980 
13:15	79.4	79.4	78.9	31	46.1	1	4	315	0.00	29.980 
13:20	79.2	79.2	78.6	28	43.3	1	4	270	0.00	29.977 
13:25	79.4	79.4	78.8	29	44.3	1	4	270	0.00	29.975 
13:30	79.4	79.4	78.9	31	46.1	0	3	315	0.00	29.976 
13:35	79.9	79.9	79.0	28	43.9	1	2	315	0.00	29.975 
13:40	80.1	80.1	79.2	30	45.8	1	3	248	0.00	29.974 
13:45	79.8	79.8	79.1	31	46.5	1	4	292	0.00	29.974 
13:50	79.8	79.8	78.9	28	43.8	1	3	270	0.00	29.973 
13:55	79.8	79.8	78.9	27	42.8	1	3	270	0.00	29.973 
14:00	80.1	80.1	79.2	30	45.8	0	2	112	0.00	29.970 
14:05	80.3	80.3	79.4	31	46.9	1	4	292	0.00	29.974 
14:10	80.3	80.3	79.2	28	44.2	1	3	248	0.00	29.974 
14:15	80.5	80.5	79.4	28	44.4	1	3	248	0.00	29.969 
14:20	80.7	80.7	79.4	27	43.6	1	5	248	0.00	29.966 
14:25	80.9	80.9	79.6	28	44.7	1	2	248	0.00	29.967 
14:30	80.9	80.9	79.6	28	44.7	1	3	292	0.00	29.963 
14:35	80.5	80.5	79.4	28	44.4	1	3	292	0.00	29.964 
14:40	80.5	80.5	79.5	30	46.2	1	4	248	0.00	29.962 
14:45	81.1	81.1	79.9	30	46.7	1	4	248	0.00	29.960 
14:50	80.7	80.7	79.6	30	46.4	2	5	270	0.00	29.960 
14:55	80.9	80.9	79.7	30	46.5	1	3	270	0.00	29.960 
15:00	81.1	81.1	79.8	29	45.8	1	6	270	0.00	29.959 
15:05	81.1	81.1	79.7	28	44.9	1	6	248	0.00	29.962 
15:10	80.9	80.9	79.6	28	44.7	0	2	338	0.00	29.962 
15:15	81.1	81.1	79.7	27	43.9	1	4	270	0.00	29.961 
15:20	80.9	80.9	79.6	28	44.7	1	3	270	0.00	29.961 
15:25	80.9	80.9	79.5	27	43.8	1	3	270	0.00	29.959 
15:30	80.9	80.9	79.6	28	44.7	1	3	270	0.00	29.958 
15:35	81.1	81.1	79.7	28	44.9	0	2	248	0.00	29.957 
15:40	81.1	81.1	79.7	27	43.9	1	3	248	0.00	29.956 
15:45	80.5	80.5	79.4	28	44.4	2	5	315	0.00	29.960 
15:50	80.3	80.3	79.2	27	43.2	1	2	292	0.00	29.956 
15:55	80.7	80.7	79.5	29	45.5	2	6	248	0.00	29.955 
16:00	80.7	80.7	79.5	28	44.5	1	3	248	0.00	29.955 
16:05	80.5	80.5	79.4	28	44.4	1	4	292	0.00	29.956 
16:10	80.3	80.3	79.3	29	45.1	1	3	292	0.00	29.953 
16:15	80.5	80.5	79.6	31	47.1	1	3	292	0.00	29.950 
16:20	80.9	80.9	79.6	28	44.7	1	3	270	0.00	29.951 
16:25	80.9	80.9	79.7	29	45.6	1	3	270	0.00	29.950 
16:30	80.9	80.9	79.7	29	45.6	1	4	248	0.00	29.949 
16:35	80.5	80.5	79.5	30	46.2	1	3	248	0.00	29.948 
16:40	80.7	80.7	79.8	32	48.1	0	2	248	0.00	29.948 
16:45	80.9	80.9	79.5	27	43.8	2	5	248	0.00	29.947 
16:50	80.5	80.5	79.7	33	48.7	1	3	248	0.00	29.947 
16:55	80.3	80.3	79.3	29	45.1	1	4	270	0.00	29.946 
17:00	80.3	80.3	79.5	32	47.7	1	3	248	0.00	29.944 
17:05	79.8	79.8	79.1	31	46.5	2	7	248	0.00	29.938 
17:10	79.2	79.2	78.7	30	45.1	2	6	248	0.00	29.939 
17:15	79.0	79.0	78.6	29	44.0	1	3	248	0.00	29.938 
17:20	79.2	79.2	78.8	31	45.9	1	2	248	0.00	29.937 
17:25	79.4	79.4	78.9	31	46.1	1	2	248	0.00	29.936 
17:30	79.2	79.2	78.7	30	45.1	1	4	270	0.00	29.936 
17:35	78.8	78.8	78.5	30	44.7	1	4	270	0.00	29.935 
17:40	78.5	78.5	78.4	30	44.5	1	4	225	0.00	29.934 
17:45	78.5	78.5	78.5	32	46.2	1	4	225	0.00	29.934 
17:50	78.3	78.3	78.5	33	46.8	1	4	270	0.00	29.933 
17:55	78.1	78.1	78.3	32	45.8	1	5	248	0.00	29.933 
18:00	78.1	78.1	78.4	34	47.4	1	2	292	0.00	29.934 
18:05	77.9	77.9	78.2	32	45.6	1	5	248	0.00	29.929 
18:10	77.7	77.7	78.2	33	46.3	0	3	248	0.00	29.929 
18:15	77.7	77.7	78.3	35	47.8	1	3	248	0.00	29.929 
18:20	77.6	77.6	78.1	33	46.2	1	5	270	0.00	29.930 
18:25	77.4	77.4	78.0	33	46.0	1	6	270	0.00	29.931 
18:30	77.4	77.4	78.1	34	46.8	1	2	292	0.00	29.934 
18:35	77.2	77.2	77.9	33	45.8	0	2	292	0.00	29.933 
18:40	77.2	77.2	78.0	34	46.6	1	3	270	0.00	29.933 
18:45	77.2	77.2	77.9	33	45.8	1	3	248	0.00	29.935 
18:50	77.0	77.0	77.9	33	45.7	1	4	248	0.00	29.935 
18:55	76.8	76.8	77.8	34	46.3	0	2	248	0.00	29.936 
19:00	76.7	76.7	77.9	35	47.0	0	2	248	0.00	29.937 
19:05	76.3	76.3	77.7	35	46.6	0	2	248	0.00	29.932 
19:10	76.1	76.1	77.6	35	46.4	0	2	248	0.00	29.934 
19:15	76.0	76.0	77.6	35	46.4	0	2	248	0.00	29.935 
19:20	76.0	76.0	77.6	35	46.4	0	1	248	0.00	29.935 
19:25	75.8	75.8	77.5	35	46.2	0	1	248	0.00	29.935 
19:30	75.4	75.4	77.4	36	46.6	0	1	248	0.00	29.932 
19:35	75.3	75.3	77.4	36	46.5	0	1	248	0.00	29.931 
19:40	74.9	74.9	74.9	37	46.9	0	1	248	0.00	29.927 
19:45	74.7	74.7	74.7	38	47.4	0	1	248	0.00	29.928 
19:50	74.4	74.4	74.4	38	47.1	0	1	248	0.00	29.927 
19:55	74.0	74.0	74.0	39	47.5	0	0	---	0.00	29.928 
20:00	73.9	73.9	73.9	40	48.0	0	0	---	0.00	29.927 
20:05	73.3	73.3	73.3	40	47.5	0	0	---	0.00	29.921 
20:10	73.0	73.0	73.0	42	48.5	0	0	---	0.00	29.923 
20:15	72.3	72.3	72.3	43	48.5	0	0	---	0.00	29.922 
20:20	71.8	71.8	71.8	45	49.3	0	0	---	0.00	29.921 
20:25	71.3	71.3	71.3	45	48.8	0	0	---	0.00	29.922 
20:30	70.9	70.9	70.9	46	49.1	0	0	---	0.00	29.922 
20:35	70.6	70.6	70.6	46	48.8	0	0	---	0.00	29.921 
20:40	70.3	70.3	70.3	47	49.1	0	0	---	0.00	29.920 
20:45	69.8	69.8	69.8	48	49.2	0	0	---	0.00	29.921 
20:50	69.4	69.4	69.4	49	49.4	0	0	---	0.00	29.920 
20:55	69.1	69.1	69.1	50	49.7	0	0	---	0.00	29.924 
21:00	68.8	68.8	68.8	51	49.9	0	0	---	0.00	29.925 
21:05	68.4	68.4	68.4	51	49.6	0	0	---	0.00	29.922 
21:10	68.1	68.1	68.1	52	49.8	0	0	---	0.00	29.922 
21:15	67.8	67.8	67.8	53	50.0	0	0	---	0.00	29.923 
21:20	67.6	67.6	67.6	54	50.4	0	0	---	0.00	29.924 
21:25	67.3	67.3	67.3	54	50.1	0	0	---	0.00	29.926 
21:30	66.9	66.9	66.9	55	50.2	0	0	---	0.00	29.926 
21:35	66.8	66.8	66.8	56	50.6	0	0	---	0.00	29.926 
21:40	66.4	66.4	66.4	57	50.7	0	0	---	0.00	29.927 
21:45	66.1	66.1	66.1	58	50.9	0	0	---	0.00	29.926 
21:50	66.0	66.0	66.0	59	51.3	0	0	---	0.00	29.926 
21:55	65.8	65.8	65.8	59	51.1	0	0	---	0.00	29.925 
22:00	65.6	65.6	65.6	60	51.3	0	0	---	0.00	29.925 
22:05	65.5	65.5	65.5	60	51.2	0	0	---	0.00	29.922 
22:10	65.2	65.2	65.2	61	51.4	0	0	---	0.00	29.924 
22:15	65.0	65.0	65.0	62	51.7	0	0	---	0.00	29.923 
22:20	64.7	64.7	64.7	63	51.8	0	0	---	0.00	29.923 
22:25	64.5	64.5	64.5	64	52.0	0	0	---	0.00	29.923 
22:30	64.3	64.3	64.3	64	51.9	0	0	---	0.00	29.923 
22:35	64.2	64.2	64.2	64	51.8	0	0	---	0.00	29.923 
22:40	64.2	64.2	64.2	64	51.8	0	0	---	0.00	29.922 
22:45	64.2	64.2	64.2	64	51.8	0	0	---	0.00	29.922 
22:50	64.0	64.0	64.0	65	52.0	0	0	---	0.00	29.920 
22:55	64.0	64.0	64.0	65	52.0	0	0	---	0.00	29.921 
23:00	63.9	63.9	63.9	65	51.9	0	0	---	0.00	29.921 
23:05	64.0	64.0	64.0	65	52.0	0	0	---	0.00	29.921 
23:10	63.9	63.9	63.9	65	51.9	0	0	---	0.00	29.920 
23:15	63.9	63.9	63.9	65	51.9	0	0	---	0.00	29.921 
23:20	63.9	63.9	63.9	64	51.5	0	0	---	0.00	29.918 
23:25	63.9	63.9	63.9	64	51.5	0	0	---	0.00	29.918 
23:30	63.9	63.9	63.9	63	51.1	0	0	---	0.00	29.919 
23:35	63.9	63.9	63.9	64	51.5	0	0	---	0.00	29.920 
23:40	63.7	63.7	63.7	64	51.3	0	0	---	0.00	29.919 
23:45	63.7	63.7	63.7	64	51.3	0	0	---	0.00	29.919 
23:50	63.5	63.5	63.5	65	51.5	0	0	---	0.00	29.918 
23:55	63.4	63.4	63.4	64	51.0	0	0	---	0.00	29.917 

CoCoRaHS
IN-AL-39
A2 Web Hosting
Creative Commons License
GoDaddy
Look for:

loaded 2017-12-11 06:42:48 • last modified 2010-11-18 10:43:29
Privacy PolicyDisclaimer
• wx.awcolley.com is powered by PmWiki v.2002016 •
• all content (unless otherwise noted) © 2017 A W Colley